Terminal Aerodrome Forecast
Issued by NWS Twin Cities, MN

Home | Current Version | Previous Version | Text Only | Print | Product List | Glossary Off
Versions: 1 2 3 4 5 6 7 8 9 10 11 12 13 14 15 16 17 18 19 20 21 22 23 24 25 26 27

000
FTUS43 KMPX 291737
TAFMSP
TAF
KMSP 291737Z 2918/3024 14005KT P6SM BKN007
     FM291830 17005KT P6SM SCT012
     FM292100 17006KT P6SM SKC
     FM301000 18005KT 6SM BR FEW003
     FM301400 18009KT P6SM SKC=

USA.gov is the U.S. government's official web portal to all federal, state and local government web resources and services.